createdAt,value
2024-02-06T00:00:28.495Z,2.70
2024-02-06T00:02:55.906Z,2.77
2024-02-06T00:05:23.344Z,2.81
2024-02-06T00:07:51.055Z,2.78
2024-02-06T00:10:18.713Z,2.78
2024-02-06T00:12:46.186Z,2.83
2024-02-06T00:15:13.806Z,2.88
2024-02-06T00:17:41.186Z,2.87
2024-02-06T00:20:09.483Z,2.82
2024-02-06T00:22:37.087Z,2.76
2024-02-06T00:25:05.805Z,2.76
2024-02-06T00:27:33.264Z,2.79
2024-02-06T00:30:00.711Z,2.74
2024-02-06T00:32:28.232Z,2.70
2024-02-06T00:35:01.054Z,2.71
2024-02-06T00:37:31.999Z,2.73
2024-02-06T00:40:18.562Z,2.74
2024-02-06T00:44:42.478Z,2.49
2024-02-06T00:47:10.051Z,2.73
2024-02-06T00:49:37.636Z,2.75
2024-02-06T00:52:05.310Z,2.72
2024-02-06T00:54:32.791Z,2.70
2024-02-06T00:57:00.190Z,2.70
2024-02-06T00:59:29.291Z,2.72
2024-02-06T01:02:00.247Z,2.73
2024-02-06T01:04:28.024Z,2.76
2024-02-06T01:06:55.556Z,2.79
2024-02-06T01:09:23.220Z,2.78
2024-02-06T01:11:50.623Z,2.81
2024-02-06T01:14:17.997Z,2.83
2024-02-06T01:16:45.429Z,2.85
2024-02-06T01:19:12.926Z,2.82
2024-02-06T01:21:40.303Z,2.77
2024-02-06T01:24:08.985Z,2.71
2024-02-06T01:26:36.399Z,2.69
2024-02-06T01:29:04.659Z,2.66
2024-02-06T01:31:32.603Z,2.59
2024-02-06T01:34:00.349Z,2.60
2024-02-06T01:36:27.916Z,2.58
2024-02-06T01:38:55.333Z,2.66
2024-02-06T01:41:23.363Z,2.70
2024-02-06T01:43:50.792Z,2.72
2024-02-06T01:46:18.318Z,2.77
2024-02-06T01:48:46.105Z,2.81
2024-02-06T01:51:14.477Z,2.81
2024-02-06T01:53:42.682Z,2.82
2024-02-06T01:56:10.161Z,2.80
2024-02-06T01:58:37.653Z,2.79
2024-02-06T02:01:06.215Z,2.95
2024-02-06T02:03:33.837Z,3.00
2024-02-06T02:06:01.354Z,2.92
2024-02-06T02:08:35.116Z,2.87
2024-02-06T02:11:06.097Z,2.86
2024-02-06T02:13:33.568Z,2.86
2024-02-06T02:16:01.202Z,2.86
2024-02-06T02:18:36.148Z,2.84
2024-02-06T02:21:09.135Z,2.80
2024-02-06T02:23:37.819Z,2.76
2024-02-06T02:26:07.023Z,2.79
2024-02-06T02:28:35.700Z,2.77
2024-02-06T02:31:03.502Z,2.77
2024-02-06T02:33:30.990Z,2.83
2024-02-06T02:35:58.704Z,2.83
2024-02-06T02:38:26.123Z,2.80
2024-02-06T02:40:53.657Z,2.81
2024-02-06T02:43:21.208Z,2.81
2024-02-06T02:45:48.714Z,2.87
2024-02-06T02:48:16.169Z,2.90
2024-02-06T02:50:43.678Z,2.89
2024-02-06T02:53:11.071Z,2.92
2024-02-06T02:55:38.655Z,2.96
2024-02-06T02:58:07.138Z,3.03
2024-02-06T03:00:37.847Z,3.10
2024-02-06T03:03:05.565Z,3.11
2024-02-06T03:05:33.195Z,3.16
2024-02-06T03:08:00.840Z,3.20
2024-02-06T03:10:28.793Z,3.24
2024-02-06T03:12:56.722Z,3.27
2024-02-06T03:15:24.130Z,3.24
2024-02-06T03:17:53.386Z,3.22
2024-02-06T03:20:21.353Z,3.22
2024-02-06T03:22:49.378Z,3.28
2024-02-06T03:25:17.381Z,3.41
2024-02-06T03:27:47.188Z,3.47
2024-02-06T03:30:16.196Z,3.35
2024-02-06T03:32:44.299Z,3.26
2024-02-06T03:35:12.361Z,3.32
2024-02-06T03:37:40.051Z,3.35
2024-02-06T03:40:10.273Z,3.33
2024-02-06T03:42:40.887Z,3.34
2024-02-06T03:45:08.797Z,3.37
2024-02-06T03:47:36.961Z,3.42
2024-02-06T03:50:05.162Z,3.46
2024-02-06T03:52:32.663Z,3.49
2024-02-06T03:55:00.180Z,3.43
2024-02-06T03:57:27.754Z,3.39
2024-02-06T03:59:55.314Z,3.39
2024-02-06T04:02:23.552Z,3.38
2024-02-06T04:04:51.317Z,3.35
2024-02-06T04:07:19.332Z,3.33
2024-02-06T04:09:46.925Z,3.33
2024-02-06T04:12:14.390Z,3.33
2024-02-06T04:14:41.988Z,3.32
2024-02-06T04:17:09.394Z,3.25
2024-02-06T04:19:36.991Z,3.16
2024-02-06T04:22:05.105Z,3.19
2024-02-06T04:24:32.968Z,3.21
2024-02-06T04:27:01.168Z,3.21
2024-02-06T04:29:28.668Z,3.24
2024-02-06T04:31:56.762Z,3.27
2024-02-06T04:34:24.421Z,3.30
2024-02-06T04:36:52.936Z,3.34
2024-02-06T04:39:21.171Z,3.37
2024-02-06T04:41:48.590Z,3.40
2024-02-06T04:44:15.947Z,3.39
2024-02-06T04:46:43.450Z,3.37
2024-02-06T04:49:11.157Z,3.36
2024-02-06T04:51:38.679Z,3.28
2024-02-06T04:54:06.879Z,3.25
2024-02-06T04:56:34.361Z,3.28
2024-02-06T04:59:02.739Z,3.39
2024-02-06T05:01:30.250Z,3.59
2024-02-06T05:03:58.049Z,3.68
2024-02-06T05:06:25.644Z,3.54
2024-02-06T05:08:53.010Z,3.42
2024-02-06T05:11:20.369Z,3.52
2024-02-06T05:13:47.709Z,3.75
2024-02-06T05:16:15.621Z,3.80
2024-02-06T05:18:43.194Z,3.64
2024-02-06T05:21:11.136Z,3.57
2024-02-06T05:23:38.494Z,3.83
2024-02-06T05:26:05.879Z,4.02
2024-02-06T05:28:33.591Z,3.90
2024-02-06T05:31:01.187Z,3.73
2024-02-06T05:33:28.812Z,3.78
2024-02-06T05:35:56.603Z,3.99
2024-02-06T05:38:24.321Z,3.91
2024-02-06T05:40:51.825Z,3.67
2024-02-06T05:43:19.523Z,3.75
2024-02-06T05:45:46.922Z,3.96
2024-02-06T05:48:14.336Z,3.86
2024-02-06T05:50:41.786Z,3.68
2024-02-06T05:53:09.215Z,3.72
2024-02-06T05:55:36.793Z,3.96
2024-02-06T05:58:05.053Z,4.00
2024-02-06T06:00:33.224Z,3.87
2024-02-06T06:03:00.670Z,3.97
2024-02-06T06:05:28.181Z,4.15
2024-02-06T06:07:55.899Z,3.99
2024-02-06T06:10:23.498Z,3.87
2024-02-06T06:12:50.932Z,4.06
2024-02-06T06:15:18.368Z,4.21
2024-02-06T06:17:45.931Z,4.12
2024-02-06T06:20:14.194Z,3.99
2024-02-06T06:22:41.840Z,4.11
2024-02-06T06:25:10.766Z,4.33
2024-02-06T06:27:41.211Z,4.24
2024-02-06T06:30:09.967Z,4.09
2024-02-06T06:32:37.465Z,4.01
2024-02-06T06:35:05.911Z,4.22
2024-02-06T06:37:37.716Z,4.32
2024-02-06T06:40:09.357Z,4.15
2024-02-06T06:42:37.341Z,4.02
2024-02-06T06:45:05.477Z,4.12
2024-02-06T06:47:32.936Z,4.34
2024-02-06T06:50:00.931Z,4.36
2024-02-06T06:52:31.313Z,4.18
2024-02-06T06:55:00.492Z,4.04
2024-02-06T06:57:27.864Z,4.17
2024-02-06T06:59:55.358Z,4.33
2024-02-06T07:02:22.967Z,4.42
2024-02-06T07:04:50.504Z,4.25
2024-02-06T07:07:18.511Z,4.03
2024-02-06T07:09:46.183Z,4.15
2024-02-06T07:12:13.643Z,4.38
2024-02-06T07:14:41.027Z,4.40
2024-02-06T07:17:08.650Z,4.21
2024-02-06T07:19:36.963Z,4.24
2024-02-06T07:22:05.147Z,4.46
2024-02-06T07:24:32.657Z,4.57
2024-02-06T07:27:01.085Z,4.43
2024-02-06T07:29:28.497Z,4.30
2024-02-06T07:31:55.970Z,4.43
2024-02-06T07:34:23.990Z,4.51
2024-02-06T07:36:51.703Z,4.39
2024-02-06T07:39:19.949Z,4.25
2024-02-06T07:41:47.458Z,4.40
2024-02-06T07:44:15.002Z,4.61
2024-02-06T07:46:42.615Z,4.68
2024-02-06T07:49:10.526Z,4.56
2024-02-06T07:51:41.377Z,4.49
2024-02-06T07:54:08.876Z,4.66
2024-02-06T07:56:38.671Z,4.87
2024-02-06T07:59:06.040Z,4.82
2024-02-06T08:01:34.413Z,4.63
2024-02-06T08:04:05.379Z,4.66
2024-02-06T08:06:34.010Z,4.95
2024-02-06T08:09:01.803Z,5.10
2024-02-06T08:11:29.343Z,4.93
2024-02-06T08:13:56.870Z,4.76
2024-02-06T08:16:24.503Z,4.93
2024-02-06T08:18:52.128Z,5.16
2024-02-06T08:21:19.688Z,5.16
2024-02-06T08:23:47.227Z,5.00
2024-02-06T08:26:15.029Z,4.84
2024-02-06T08:28:42.458Z,4.87
2024-02-06T08:31:10.717Z,4.99
2024-02-06T08:33:38.281Z,5.15
2024-02-06T08:36:05.958Z,5.31
2024-02-06T08:38:34.543Z,5.27
2024-02-06T08:41:02.489Z,5.16
2024-02-06T08:43:42.246Z,5.33
2024-02-06T08:46:17.378Z,5.58
2024-02-06T08:51:12.368Z,5.65
2024-02-06T08:53:40.010Z,5.48
2024-02-06T08:56:08.855Z,5.46
2024-02-06T08:58:36.461Z,5.60
2024-02-06T09:01:04.494Z,5.66
2024-02-06T09:03:32.288Z,5.54
2024-02-06T09:06:00.151Z,5.45
2024-02-06T09:08:27.850Z,5.55
2024-02-06T09:10:55.526Z,5.65
2024-02-06T09:13:25.804Z,5.69
2024-02-06T09:15:53.685Z,5.52
2024-02-06T09:18:21.615Z,5.35
2024-02-06T09:20:49.730Z,5.37
2024-02-06T09:23:17.447Z,5.45
2024-02-06T09:25:47.230Z,5.50
2024-02-06T09:28:15.605Z,5.43
2024-02-06T09:30:43.201Z,5.32
2024-02-06T09:33:10.896Z,5.37
2024-02-06T09:35:38.601Z,5.54
2024-02-06T09:38:06.645Z,5.66
2024-02-06T09:40:34.658Z,5.55
2024-02-06T09:43:03.710Z,5.41
2024-02-06T09:45:32.744Z,5.51
2024-02-06T09:48:01.168Z,5.62
2024-02-06T09:50:29.070Z,5.64
2024-02-06T09:52:56.557Z,5.51
2024-02-06T09:55:24.088Z,5.35
2024-02-06T09:57:52.298Z,5.28
2024-02-06T10:00:19.964Z,5.41
2024-02-06T10:02:48.330Z,5.59
2024-02-06T10:05:21.729Z,5.70
2024-02-06T10:07:50.312Z,5.57
2024-02-06T10:10:19.540Z,5.44
2024-02-06T10:12:47.877Z,5.54
2024-02-06T10:15:19.238Z,5.66
2024-02-06T10:17:46.901Z,5.68
2024-02-06T10:20:15.028Z,5.57
2024-02-06T10:22:42.926Z,5.46
2024-02-06T10:25:11.428Z,5.50
2024-02-06T10:27:42.140Z,5.70
2024-02-06T10:30:11.593Z,5.82
2024-02-06T10:32:39.624Z,5.70
2024-02-06T10:35:10.704Z,5.53
2024-02-06T10:37:39.868Z,5.51
2024-02-06T10:40:11.720Z,5.60
2024-02-06T10:43:24.421Z,5.63
2024-02-06T10:45:28.204Z,5.51
2024-02-06T10:47:59.735Z,5.41
2024-02-06T10:50:30.718Z,5.48
2024-02-06T10:52:59.104Z,5.64
2024-02-06T10:55:27.008Z,5.71
2024-02-06T10:58:05.416Z,5.56
2024-02-06T11:00:37.171Z,5.43
2024-02-06T11:03:10.570Z,5.55
2024-02-06T11:05:53.778Z,5.73
2024-02-06T11:08:21.970Z,5.79
2024-02-06T11:10:53.620Z,5.62
2024-02-06T11:13:29.830Z,5.53
2024-02-06T11:15:57.632Z,5.65
2024-02-06T11:18:27.765Z,5.78
2024-02-06T11:20:56.263Z,5.73
2024-02-06T11:23:23.785Z,5.59
2024-02-06T11:25:51.480Z,5.56
2024-02-06T11:28:19.129Z,5.71
2024-02-06T11:30:47.546Z,5.85
2024-02-06T11:33:16.351Z,5.79
2024-02-06T11:35:43.997Z,5.68
2024-02-06T11:38:13.489Z,5.74
2024-02-06T11:40:42.982Z,6.03
2024-02-06T11:43:11.006Z,6.21
2024-02-06T11:45:40.691Z,6.11
2024-02-06T11:48:09.968Z,5.95
2024-02-06T11:50:46.091Z,5.94
2024-02-06T11:53:17.855Z,6.13
2024-02-06T11:55:46.271Z,6.24
2024-02-06T11:58:17.673Z,6.09
2024-02-06T12:00:45.281Z,5.91
2024-02-06T12:03:14.101Z,6.05
2024-02-06T12:05:44.013Z,6.26
2024-02-06T12:08:22.553Z,6.16
2024-02-06T12:10:51.018Z,5.95
2024-02-06T12:13:19.319Z,5.91
2024-02-06T12:15:46.944Z,6.12
2024-02-06T12:18:15.929Z,6.17
2024-02-06T12:20:44.016Z,5.95
2024-02-06T12:23:13.805Z,5.77
2024-02-06T12:25:42.689Z,5.97
2024-02-06T12:28:15.168Z,6.11
2024-02-06T12:30:45.634Z,5.95
2024-02-06T12:33:13.250Z,5.70
2024-02-06T12:35:40.959Z,5.81
2024-02-06T12:38:09.376Z,6.00
2024-02-06T12:40:38.047Z,6.13
2024-02-06T12:43:07.025Z,5.99
2024-02-06T12:45:35.363Z,5.81
2024-02-06T12:48:03.189Z,5.95
2024-02-06T12:50:31.071Z,6.20
2024-02-06T12:53:00.558Z,6.24
2024-02-06T12:55:30.602Z,5.99
2024-02-06T12:58:01.633Z,5.85
2024-02-06T13:02:38.307Z,5.81
2024-02-06T13:05:13.386Z,5.88
2024-02-06T13:07:41.507Z,5.76
2024-02-06T13:10:11.355Z,5.86
2024-02-06T13:12:39.027Z,5.90
2024-02-06T13:15:07.855Z,5.75
2024-02-06T13:17:39.044Z,5.60
2024-02-06T13:20:11.824Z,5.68
2024-02-06T13:22:40.685Z,5.88
2024-02-06T13:25:09.209Z,5.92
2024-02-06T13:27:36.929Z,5.77
2024-02-06T13:30:05.183Z,5.66
2024-02-06T13:32:32.659Z,5.80
2024-02-06T13:35:00.321Z,5.96
2024-02-06T13:37:28.147Z,5.94
2024-02-06T13:39:55.580Z,5.77
2024-02-06T13:42:27.339Z,5.69
2024-02-06T13:44:54.832Z,5.83
2024-02-06T13:47:22.335Z,5.95
2024-02-06T13:49:49.827Z,5.88
2024-02-06T13:52:17.441Z,5.62
2024-02-06T13:54:44.999Z,5.54
2024-02-06T13:57:12.379Z,5.71
2024-02-06T13:59:39.838Z,5.91
2024-02-06T14:02:07.303Z,6.09
2024-02-06T14:04:35.434Z,5.95
2024-02-06T14:07:04.053Z,5.74
2024-02-06T14:09:31.900Z,5.82
2024-02-06T14:11:59.298Z,6.01
2024-02-06T14:14:28.165Z,6.12
2024-02-06T14:16:55.700Z,6.10
2024-02-06T14:19:23.320Z,5.97
2024-02-06T14:21:51.047Z,5.71
2024-02-06T14:24:19.137Z,5.73
2024-02-06T14:26:46.592Z,5.83
2024-02-06T14:29:14.166Z,5.89
2024-02-06T14:31:41.672Z,5.91
2024-02-06T14:34:09.698Z,5.92
2024-02-06T14:36:37.421Z,5.81
2024-02-06T14:39:05.747Z,5.58
2024-02-06T14:41:33.280Z,5.57
2024-02-06T14:44:00.818Z,5.66
2024-02-06T14:46:28.248Z,5.70
2024-02-06T14:48:55.665Z,5.76
2024-02-06T14:51:27.278Z,5.80
2024-02-06T14:53:56.180Z,5.69
2024-02-06T14:56:23.657Z,5.44
2024-02-06T14:58:51.186Z,5.33
2024-02-06T15:01:18.704Z,5.28
2024-02-06T15:03:46.251Z,5.23
2024-02-06T15:06:13.724Z,5.26
2024-02-06T15:08:41.781Z,5.30
2024-02-06T15:11:09.228Z,5.42
2024-02-06T15:13:36.994Z,5.53
2024-02-06T15:16:05.445Z,5.63
2024-02-06T15:18:33.140Z,5.66
2024-02-06T15:21:00.947Z,5.63
2024-02-06T15:23:28.573Z,5.55
2024-02-06T15:25:56.236Z,5.51
2024-02-06T15:28:24.004Z,5.44
2024-02-06T15:30:51.537Z,5.35
2024-02-06T15:33:19.092Z,5.37
2024-02-06T15:35:46.567Z,5.36
2024-02-06T15:38:14.123Z,5.34
2024-02-06T15:40:41.739Z,5.33
2024-02-06T15:43:09.250Z,5.33
2024-02-06T15:45:38.448Z,5.32
2024-02-06T15:48:06.661Z,5.30
2024-02-06T15:50:34.191Z,5.28
2024-02-06T15:53:01.639Z,5.27
2024-02-06T15:55:29.153Z,5.29
2024-02-06T15:57:56.645Z,5.27
2024-02-06T16:00:24.113Z,5.26
2024-02-06T16:02:51.828Z,5.27
2024-02-06T16:05:19.757Z,5.28
2024-02-06T16:07:48.821Z,5.29
2024-02-06T16:10:16.504Z,5.32
2024-02-06T16:12:50.027Z,5.36
2024-02-06T16:15:21.758Z,5.39
2024-02-06T16:17:49.291Z,5.39
2024-02-06T16:20:19.830Z,5.39
2024-02-06T16:22:47.673Z,5.36
2024-02-06T16:25:15.773Z,5.32
2024-02-06T16:27:48.416Z,5.31
2024-02-06T16:30:16.148Z,5.29
2024-02-06T16:32:44.238Z,5.28
2024-02-06T16:35:13.458Z,5.29
2024-02-06T16:37:41.840Z,5.30
2024-02-06T16:40:10.560Z,5.29
2024-02-06T16:42:41.996Z,5.29
2024-02-06T16:45:12.273Z,5.29
2024-02-06T16:47:40.231Z,5.30
2024-02-06T16:50:09.262Z,5.32
2024-02-06T16:52:36.801Z,5.35
2024-02-06T16:55:06.885Z,5.37
2024-02-06T16:57:34.454Z,5.42
2024-02-06T17:00:04.846Z,5.48
2024-02-06T17:02:32.498Z,5.50
2024-02-06T17:05:00.639Z,5.50
2024-02-06T17:07:29.082Z,5.50
2024-02-06T17:09:56.902Z,5.53
2024-02-06T17:12:24.454Z,5.55
2024-02-06T17:14:51.888Z,5.52
2024-02-06T17:17:19.351Z,5.46
2024-02-06T17:19:46.923Z,5.48
2024-02-06T17:22:16.401Z,5.54
2024-02-06T17:24:44.053Z,5.54
2024-02-06T17:27:11.665Z,5.52
2024-02-06T17:29:39.044Z,5.60
2024-02-06T17:32:06.689Z,5.65
2024-02-06T17:34:34.465Z,5.71
2024-02-06T17:37:02.287Z,5.77
2024-02-06T17:39:29.949Z,5.85
2024-02-06T17:41:57.408Z,5.94
2024-02-06T17:44:24.857Z,6.01
2024-02-06T17:46:52.857Z,6.08
2024-02-06T17:49:20.701Z,6.15
2024-02-06T17:51:49.061Z,6.20
2024-02-06T17:54:16.927Z,6.30
2024-02-06T17:56:44.487Z,6.37
2024-02-06T17:59:14.137Z,6.40
2024-02-06T18:01:47.871Z,6.43
2024-02-06T18:04:16.033Z,6.45
2024-02-06T18:06:43.529Z,6.46
2024-02-06T18:09:11.795Z,6.46
2024-02-06T18:11:39.418Z,6.48
2024-02-06T18:14:07.332Z,6.50
2024-02-06T18:16:59.286Z,6.50
2024-02-06T18:19:26.888Z,6.49
2024-02-06T18:21:54.922Z,6.46
2024-02-06T18:24:22.455Z,6.41
2024-02-06T18:26:49.910Z,6.43
2024-02-06T18:29:17.944Z,6.51
2024-02-06T18:31:45.520Z,6.54
2024-02-06T18:34:13.156Z,6.55
2024-02-06T18:36:40.689Z,6.59
2024-02-06T18:39:08.734Z,6.63
2024-02-06T18:41:38.861Z,6.67
2024-02-06T18:44:07.839Z,6.71
2024-02-06T18:46:35.823Z,6.77
2024-02-06T18:49:04.018Z,6.83
2024-02-06T18:51:31.888Z,6.86
2024-02-06T18:53:59.765Z,6.90
2024-02-06T18:56:27.662Z,6.94
2024-02-06T18:58:55.202Z,6.98
2024-02-06T19:01:24.581Z,7.07
2024-02-06T19:03:52.253Z,7.14
2024-02-06T19:06:20.206Z,7.23
2024-02-06T19:08:47.874Z,7.28
2024-02-06T19:11:16.440Z,7.32
2024-02-06T19:13:44.035Z,7.37
2024-02-06T19:16:11.926Z,7.42
2024-02-06T19:18:39.712Z,7.43
2024-02-06T19:21:08.122Z,7.47
2024-02-06T19:23:35.641Z,7.49
2024-02-06T19:26:03.189Z,7.53
2024-02-06T19:28:30.747Z,7.56
2024-02-06T19:30:58.910Z,7.61
2024-02-06T19:33:26.507Z,7.62
2024-02-06T19:35:55.004Z,7.61
2024-02-06T19:38:22.842Z,7.60
2024-02-06T19:40:50.532Z,7.59
2024-02-06T19:43:18.363Z,7.59
2024-02-06T19:45:46.124Z,7.61
2024-02-06T19:48:16.261Z,7.60
2024-02-06T19:50:44.234Z,7.59
2024-02-06T19:53:11.849Z,7.57
2024-02-06T19:55:40.175Z,7.54
2024-02-06T19:58:08.342Z,7.53
2024-02-06T20:00:36.667Z,7.51
2024-02-06T20:03:04.720Z,7.51
2024-02-06T20:05:32.721Z,7.51
2024-02-06T20:08:01.274Z,7.51
2024-02-06T20:10:28.870Z,7.53
2024-02-06T20:12:56.989Z,7.53
2024-02-06T20:15:24.686Z,7.53
2024-02-06T20:17:52.233Z,7.54
2024-02-06T20:20:20.146Z,7.59
2024-02-06T20:22:47.821Z,7.62
2024-02-06T20:25:15.428Z,7.65
2024-02-06T20:27:43.017Z,7.89
2024-02-06T20:30:11.530Z,8.05
2024-02-06T20:32:39.083Z,8.00
2024-02-06T20:35:07.698Z,7.90
2024-02-06T20:37:35.911Z,7.85
2024-02-06T20:40:05.006Z,7.87
2024-02-06T20:42:32.684Z,7.94
2024-02-06T20:45:00.350Z,7.97
2024-02-06T20:47:28.518Z,8.05
2024-02-06T20:49:56.092Z,8.05
2024-02-06T20:52:23.797Z,8.01
2024-02-06T20:54:52.574Z,7.94
2024-02-06T20:57:19.992Z,7.90
2024-02-06T20:59:47.480Z,7.87
2024-02-06T21:02:14.985Z,7.85
2024-02-06T21:04:42.709Z,7.83
2024-02-06T21:07:10.509Z,7.83
2024-02-06T21:09:38.115Z,7.84
2024-02-06T21:12:06.950Z,7.87
2024-02-06T21:14:37.428Z,7.84
2024-02-06T21:17:05.494Z,7.80
2024-02-06T21:19:33.326Z,7.72
2024-02-06T21:22:00.840Z,7.68
2024-02-06T21:24:28.281Z,7.68
2024-02-06T21:26:55.735Z,7.73
2024-02-06T21:29:23.189Z,7.72
2024-02-06T21:31:50.624Z,7.73
2024-02-06T21:34:18.284Z,7.87
2024-02-06T21:36:45.974Z,8.00
2024-02-06T21:39:18.297Z,8.06
2024-02-06T21:41:46.157Z,8.17
2024-02-06T21:44:13.636Z,8.28
2024-02-06T21:46:41.160Z,8.32
2024-02-06T21:49:08.913Z,8.30
2024-02-06T21:51:36.465Z,8.29
2024-02-06T21:54:03.982Z,8.29
2024-02-06T21:56:31.457Z,8.27
2024-02-06T21:58:58.964Z,8.22
2024-02-06T22:01:26.525Z,8.11
2024-02-06T22:03:54.624Z,8.03
2024-02-06T22:06:22.349Z,7.96
2024-02-06T22:08:49.889Z,7.88
2024-02-06T22:11:17.278Z,7.81
2024-02-06T22:13:44.781Z,7.83
2024-02-06T22:16:12.653Z,7.94
2024-02-06T22:18:40.744Z,8.02
2024-02-06T22:21:10.038Z,7.97
2024-02-06T22:23:37.547Z,7.89
2024-02-06T22:26:05.066Z,7.92
2024-02-06T22:28:32.470Z,8.09
2024-02-06T22:31:00.455Z,8.18
2024-02-06T22:33:28.100Z,8.09
2024-02-06T22:35:55.566Z,8.00
2024-02-06T22:38:23.632Z,7.93
2024-02-06T22:40:51.274Z,7.84
2024-02-06T22:43:19.437Z,7.78
2024-02-06T22:45:47.087Z,7.70
2024-02-06T22:48:14.507Z,7.65
2024-02-06T22:50:42.822Z,7.59
2024-02-06T22:53:10.284Z,7.56
2024-02-06T22:55:37.664Z,7.54
2024-02-06T22:58:06.604Z,7.54
2024-02-06T23:00:34.321Z,7.54
2024-02-06T23:03:01.991Z,7.54
2024-02-06T23:05:29.949Z,7.55
2024-02-06T23:07:57.418Z,7.55
2024-02-06T23:10:25.216Z,7.54
2024-02-06T23:12:53.039Z,7.56
2024-02-06T23:15:21.868Z,7.56
2024-02-06T23:17:49.813Z,7.55
2024-02-06T23:20:17.735Z,7.55
2024-02-06T23:22:45.347Z,7.51
2024-02-06T23:25:12.901Z,7.48
2024-02-06T23:27:40.427Z,7.46
2024-02-06T23:30:09.550Z,7.44
2024-02-06T23:32:37.246Z,7.43
2024-02-06T23:35:06.605Z,7.44
2024-02-06T23:37:35.498Z,7.44
2024-02-06T23:40:05.187Z,7.43
2024-02-06T23:42:32.708Z,7.42
2024-02-06T23:45:00.156Z,7.40
2024-02-06T23:47:27.772Z,7.37
2024-02-06T23:49:59.857Z,7.36
2024-02-06T23:52:27.910Z,7.36
2024-02-06T23:54:55.377Z,7.37
2024-02-06T23:57:22.856Z,7.40
2024-02-06T23:59:50.919Z,7.45
